Jameson, Missouri
Current Conditions -  °F | °C
As of 8:39 PM on Sunday 21 Dec 2014 (Local Time) from KLWD Reporting Station
Overcast Overcast  
Wind Chill: 33°   Ceiling: 400
Heat Index: 41°   Visibility: 8mi
Dew Point: 40°   Wind: 14mph
Humidity: 96%   Direction: 150°SSE
Pressure: 29.78"   Gusts: 24mph
Location:  40.01°N, 93.98°W
Report Text: KLWD 220239Z AUTO 15012G21KT 8SM OVC004 05/04 A2978 RMK AO2 T00500044
Loading
Personal Weather Stations






























Interactive Weather Map New forecast layout! Learn more

10-Day Weather Forecast

Advertisements
Track Severe Weather on mobile